createdAt,value
2019-03-21T00:04:56.413Z,102831.97
2019-03-21T00:13:47.576Z,102822.45
2019-03-21T00:16:15.847Z,102820.73
2019-03-21T00:21:39.675Z,102815.50
2019-03-21T00:24:07.948Z,102818.19
2019-03-21T00:26:36.235Z,102819.90
2019-03-21T00:32:22.020Z,102823.81
2019-03-21T00:34:50.293Z,102827.28
2019-03-21T00:37:18.564Z,102818.59
2019-03-21T00:39:46.849Z,102823.31
2019-03-21T00:42:15.121Z,102825.92
2019-03-21T00:44:43.405Z,102831.09
2019-03-21T00:47:11.682Z,102833.21
2019-03-21T00:49:39.960Z,102839.68
2019-03-21T00:52:08.237Z,102839.68
2019-03-21T00:54:36.538Z,102832.27
2019-03-21T00:57:04.820Z,102839.70
2019-03-21T00:59:33.111Z,102838.35
2019-03-21T01:02:01.388Z,102842.80
2019-03-21T01:07:37.165Z,102822.81
2019-03-21T01:16:47.906Z,102809.84
2019-03-21T01:19:16.184Z,102801.02
2019-03-21T01:21:44.473Z,102796.37
2019-03-21T01:24:12.749Z,102795.38
2019-03-21T01:26:41.086Z,102803.66
2019-03-21T01:29:09.357Z,102804.09
2019-03-21T01:31:37.636Z,102812.73
2019-03-21T01:34:05.910Z,102803.19
2019-03-21T01:36:34.203Z,102801.95
2019-03-21T01:39:02.478Z,102797.99
2019-03-21T01:41:30.762Z,102800.20
2019-03-21T01:43:59.053Z,102807.25
2019-03-21T01:46:27.332Z,102802.03
2019-03-21T01:48:55.649Z,102799.34
2019-03-21T01:51:23.917Z,102791.89
2019-03-21T01:56:59.679Z,102792.05
2019-03-21T01:59:27.971Z,102793.36
2019-03-21T02:01:56.243Z,102785.91
2019-03-21T02:04:24.525Z,102791.16
2019-03-21T02:06:52.801Z,102796.69
2019-03-21T02:09:21.083Z,102796.18
2019-03-21T02:11:49.361Z,102796.20
2019-03-21T02:14:17.632Z,102795.76
2019-03-21T02:16:45.917Z,102787.53
2019-03-21T02:19:14.194Z,102784.02
2019-03-21T02:21:42.479Z,102783.17
2019-03-21T02:24:10.876Z,102780.14
2019-03-21T02:26:39.142Z,102779.74
2019-03-21T02:29:07.428Z,102783.17
2019-03-21T02:31:35.705Z,102775.80
2019-03-21T02:34:04.066Z,102784.16
2019-03-21T03:19:44.347Z,102780.28
2019-03-21T03:34:28.643Z,102758.96
2019-03-21T03:36:56.921Z,102772.01
2019-03-21T03:39:25.204Z,102772.05
2019-03-21T03:41:53.485Z,102771.12
2019-03-21T03:44:21.770Z,102771.59
2019-03-21T03:46:50.037Z,102770.69
2019-03-21T03:49:18.312Z,102778.09
2019-03-21T03:51:46.586Z,102780.27
2019-03-21T03:54:14.868Z,102775.02
2019-03-21T04:03:02.016Z,102765.91
2019-03-21T04:05:30.299Z,102768.87
2019-03-21T04:07:58.589Z,102763.71
2019-03-21T04:23:52.587Z,102770.61
2019-03-21T04:32:48.672Z,102769.72
2019-03-21T04:38:29.495Z,102763.34
2019-03-21T04:40:57.779Z,102772.41
2019-03-21T04:43:26.048Z,102772.31
2019-03-21T04:46:02.863Z,102768.44
2019-03-21T04:48:24.335Z,102773.66
2019-03-21T04:50:52.617Z,102769.37
2019-03-21T04:53:20.890Z,102769.82
2019-03-21T04:58:37.343Z,102771.12
2019-03-21T05:01:05.621Z,102766.79
2019-03-21T05:03:33.970Z,102770.62
2019-03-21T05:09:48.898Z,102764.63
2019-03-21T05:12:18.585Z,102767.23
2019-03-21T05:20:45.575Z,102765.48
2019-03-21T05:23:14.637Z,102763.22
2019-03-21T05:25:42.912Z,102763.22
2019-03-21T05:31:48.100Z,102765.34
2019-03-21T05:34:16.388Z,102766.16
2019-03-21T05:39:33.629Z,102763.94
2019-03-21T05:45:00.131Z,102773.14
2019-03-21T05:47:28.413Z,102773.50
2019-03-21T05:49:56.696Z,102771.38
2019-03-21T05:52:24.987Z,102776.13
2019-03-21T05:54:53.261Z,102771.77
2019-03-21T05:57:21.553Z,102772.22
2019-03-21T06:16:06.741Z,102767.88
2019-03-21T06:27:51.199Z,102777.81
2019-03-21T06:30:19.466Z,102798.16
2019-03-21T06:32:47.752Z,102789.02
2019-03-21T06:38:34.493Z,102795.11
2019-03-21T06:41:02.761Z,102796.31
2019-03-21T06:43:31.036Z,102796.31
2019-03-21T06:45:59.313Z,102801.40
2019-03-21T06:48:27.585Z,102797.18
2019-03-21T06:50:55.878Z,102796.71
2019-03-21T06:53:24.169Z,102804.45
2019-03-21T06:59:19.802Z,102807.21
2019-03-21T07:01:48.088Z,102801.94
2019-03-21T07:04:16.361Z,102803.81
2019-03-21T07:06:44.635Z,102819.09
2019-03-21T07:09:12.915Z,102817.07
2019-03-21T07:11:41.189Z,102819.77
2019-03-21T07:14:09.476Z,102820.08
2019-03-21T07:17:00.695Z,102822.56
2019-03-21T07:19:27.129Z,102829.22
2019-03-21T07:21:55.426Z,102830.45
2019-03-21T07:24:23.699Z,102828.36
2019-03-21T07:26:51.973Z,102830.22
2019-03-21T07:29:20.272Z,102826.30
2019-03-21T07:31:48.531Z,102822.41
2019-03-21T07:34:35.540Z,102832.41
2019-03-21T07:37:03.815Z,102829.69
2019-03-21T07:39:32.075Z,102824.05
2019-03-21T07:42:01.297Z,102830.09
2019-03-21T07:44:30.492Z,102826.61
2019-03-21T07:46:58.755Z,102815.19
2019-03-21T07:49:27.043Z,102824.05
2019-03-21T07:51:55.332Z,102823.87
2019-03-21T07:57:43.245Z,102822.12
2019-03-21T08:03:22.145Z,102824.27
2019-03-21T08:05:50.422Z,102838.63
2019-03-21T08:08:18.705Z,102844.77
2019-03-21T08:10:47.001Z,102852.73
2019-03-21T08:13:15.270Z,102851.42
2019-03-21T08:15:43.560Z,102851.07
2019-03-21T08:18:11.819Z,102855.78
2019-03-21T08:20:40.103Z,102856.69
2019-03-21T08:23:08.370Z,102854.28
2019-03-21T08:25:36.651Z,102854.72
2019-03-21T08:28:04.921Z,102863.94
2019-03-21T08:33:30.808Z,102864.36
2019-03-21T08:35:59.072Z,102865.68
2019-03-21T08:41:54.723Z,102867.01
2019-03-21T08:44:22.993Z,102867.43
2019-03-21T08:46:51.274Z,102879.09
2019-03-21T08:49:19.569Z,102879.89
2019-03-21T08:51:47.849Z,102882.50
2019-03-21T08:54:16.137Z,102882.05
2019-03-21T08:56:44.415Z,102882.92
2019-03-21T08:59:12.695Z,102886.16
2019-03-21T09:01:40.981Z,102884.75
2019-03-21T09:04:09.246Z,102893.41
2019-03-21T09:06:37.526Z,102903.11
2019-03-21T09:09:40.563Z,102908.86
2019-03-21T09:12:08.831Z,102906.27
2019-03-21T09:14:37.103Z,102911.98
2019-03-21T09:17:05.393Z,102914.20
2019-03-21T09:19:33.660Z,102918.30
2019-03-21T09:24:58.507Z,102920.92
2019-03-21T09:27:26.805Z,102921.06
2019-03-21T09:29:55.086Z,102916.64
2019-03-21T09:32:23.467Z,102928.06
2019-03-21T09:34:51.726Z,102921.55
2019-03-21T09:37:20.006Z,102921.92
2019-03-21T09:39:48.280Z,102922.35
2019-03-21T09:42:16.588Z,102931.52
2019-03-21T09:44:44.852Z,102925.00
2019-03-21T09:47:13.127Z,102922.17
2019-03-21T09:49:41.412Z,102930.84
2019-03-21T09:52:09.691Z,102925.22
2019-03-21T09:54:37.968Z,102925.19
2019-03-21T09:57:06.257Z,102923.98
2019-03-21T09:59:34.535Z,102926.10
2019-03-21T10:02:02.845Z,102935.75
2019-03-21T10:07:42.263Z,102930.84
2019-03-21T10:13:08.156Z,102920.51
2019-03-21T10:15:36.431Z,102931.44
2019-03-21T10:21:02.327Z,102924.00
2019-03-21T10:23:49.976Z,102929.02
2019-03-21T10:29:27.580Z,102921.80
2019-03-21T10:31:55.847Z,102925.63
2019-03-21T10:34:24.126Z,102922.95
2019-03-21T10:36:52.401Z,102928.09
2019-03-21T10:39:20.676Z,102919.77
2019-03-21T10:41:48.944Z,102921.06
2019-03-21T10:44:17.218Z,102919.76
2019-03-21T10:46:45.502Z,102923.95
2019-03-21T10:49:13.779Z,102919.22
2019-03-21T10:51:42.049Z,102913.52
2019-03-21T10:54:10.325Z,102917.92
2019-03-21T10:59:25.917Z,102929.98
2019-03-21T11:01:54.189Z,102926.81
2019-03-21T11:04:22.462Z,102924.75
2019-03-21T11:10:10.024Z,102915.05
2019-03-21T11:12:38.322Z,102910.17
2019-03-21T11:21:24.770Z,102907.19
2019-03-21T11:23:53.044Z,102907.84
2019-03-21T11:29:17.394Z,102904.81
2019-03-21T11:31:45.663Z,102903.41
2019-03-21T11:34:13.948Z,102899.61
2019-03-21T11:36:42.225Z,102904.67
2019-03-21T11:39:10.492Z,102890.20
2019-03-21T11:41:38.779Z,102898.84
2019-03-21T11:47:16.571Z,102894.00
2019-03-21T11:49:44.905Z,102888.31
2019-03-21T11:55:15.250Z,102887.25
2019-03-21T11:57:43.530Z,102884.04
2019-03-21T12:03:07.365Z,102880.04
2019-03-21T12:05:35.636Z,102876.22
2019-03-21T12:08:03.981Z,102875.27
2019-03-21T12:10:34.494Z,102867.63
2019-03-21T12:16:07.213Z,102866.89
2019-03-21T12:18:35.482Z,102861.89
2019-03-21T12:21:03.824Z,102866.94
2019-03-21T12:23:32.118Z,102864.95
2019-03-21T12:26:00.391Z,102858.29
2019-03-21T12:28:28.661Z,102850.41
2019-03-21T12:30:56.945Z,102852.88
2019-03-21T12:33:25.219Z,102851.05
2019-03-21T12:35:53.568Z,102849.39
2019-03-21T12:38:21.847Z,102857.25
2019-03-21T12:40:50.118Z,102863.53
2019-03-21T12:46:36.464Z,102866.35
2019-03-21T12:49:04.744Z,102862.48
2019-03-21T12:51:33.050Z,102865.71
2019-03-21T12:54:01.327Z,102865.71
2019-03-21T12:56:29.602Z,102860.34
2019-03-21T12:58:57.872Z,102857.44
2019-03-21T13:01:26.146Z,102849.65
2019-03-21T13:03:54.415Z,102850.92
2019-03-21T13:06:22.699Z,102853.80
2019-03-21T13:08:50.990Z,102844.83
2019-03-21T13:11:19.273Z,102838.91
2019-03-21T13:13:47.548Z,102831.70
2019-03-21T13:16:15.826Z,102832.81
2019-03-21T13:18:44.117Z,102818.26
2019-03-21T13:21:12.390Z,102827.14
2019-03-21T13:23:40.696Z,102829.84
2019-03-21T13:26:09.000Z,102831.59
2019-03-21T13:28:37.255Z,102821.80
2019-03-21T13:31:05.553Z,102821.94
2019-03-21T13:33:33.825Z,102829.73
2019-03-21T13:36:02.124Z,102829.44
2019-03-21T13:38:30.416Z,102820.38
2019-03-21T13:40:58.692Z,102820.22
2019-03-21T13:43:27.011Z,102820.78
2019-03-21T13:49:02.702Z,102828.84
2019-03-21T13:51:30.979Z,102830.07
2019-03-21T13:53:59.270Z,102829.21
2019-03-21T13:56:37.750Z,102827.38
2019-03-21T13:58:57.570Z,102831.05
2019-03-21T14:01:25.850Z,102835.80
2019-03-21T14:03:54.117Z,102827.00
2019-03-21T14:09:42.949Z,102835.39
2019-03-21T14:12:11.244Z,102824.49
2019-03-21T14:14:39.529Z,102823.48
2019-03-21T14:19:56.776Z,102811.39
2019-03-21T14:22:25.056Z,102805.77
2019-03-21T14:24:53.335Z,102807.45
2019-03-21T14:27:21.647Z,102812.70
2019-03-21T14:30:00.817Z,102814.76
2019-03-21T14:35:24.865Z,102816.59
2019-03-21T14:37:53.137Z,102815.36
2019-03-21T14:40:21.434Z,102822.89
2019-03-21T14:42:49.848Z,102809.73
2019-03-21T14:45:19.732Z,102807.49
2019-03-21T14:47:47.996Z,102813.15
2019-03-21T14:56:10.041Z,102820.45
2019-03-21T14:58:38.310Z,102827.68
2019-03-21T15:01:06.572Z,102828.83
2019-03-21T15:03:34.863Z,102826.14
2019-03-21T15:06:03.216Z,102824.48
2019-03-21T15:08:31.487Z,102831.32
2019-03-21T15:10:59.767Z,102835.15
2019-03-21T15:13:28.130Z,102837.16
2019-03-21T15:15:56.492Z,102836.11
2019-03-21T15:18:24.776Z,102835.39
2019-03-21T15:20:53.057Z,102835.88
2019-03-21T15:23:21.335Z,102831.47
2019-03-21T15:25:49.704Z,102835.39
2019-03-21T15:28:19.608Z,102838.05
2019-03-21T15:30:47.885Z,102835.84
2019-03-21T15:33:16.168Z,102831.09
2019-03-21T15:35:44.441Z,102827.74
2019-03-21T15:38:12.734Z,102832.43
2019-03-21T15:40:41.089Z,102828.57
2019-03-21T15:43:09.364Z,102828.74
2019-03-21T15:45:37.633Z,102819.64
2019-03-21T15:48:44.711Z,102827.64
2019-03-21T15:54:31.932Z,102836.59
2019-03-21T15:57:00.232Z,102835.64
2019-03-21T15:59:28.494Z,102838.39
2019-03-21T16:01:56.774Z,102825.05
2019-03-21T16:04:25.043Z,102826.43
2019-03-21T16:06:53.329Z,102824.17
2019-03-21T16:12:13.312Z,102823.63
2019-03-21T16:14:41.589Z,102827.39
2019-03-21T16:17:09.886Z,102827.70
2019-03-21T16:25:57.038Z,102827.59
2019-03-21T16:31:38.019Z,102827.20
2019-03-21T16:34:06.301Z,102821.78
2019-03-21T16:39:32.197Z,102822.36
2019-03-21T16:42:00.469Z,102817.16
2019-03-21T16:47:49.307Z,102816.16
2019-03-21T16:50:17.589Z,102820.22
2019-03-21T16:52:45.856Z,102827.66
2019-03-21T16:58:25.305Z,102820.08
2019-03-21T17:00:53.590Z,102830.45
2019-03-21T17:03:21.865Z,102830.98
2019-03-21T17:05:50.154Z,102834.26
2019-03-21T17:08:18.435Z,102841.52
2019-03-21T17:10:46.700Z,102830.37
2019-03-21T17:19:46.892Z,102843.90
2019-03-21T17:22:15.183Z,102839.53
2019-03-21T17:24:43.465Z,102844.70
2019-03-21T17:27:11.751Z,102846.61
2019-03-21T17:29:40.058Z,102848.42
2019-03-21T17:32:08.331Z,102842.02
2019-03-21T17:34:36.609Z,102843.95
2019-03-21T17:39:52.276Z,102841.45
2019-03-21T17:42:21.165Z,102838.44
2019-03-21T17:50:41.934Z,102852.30
2019-03-21T17:53:47.163Z,102835.98
2019-03-21T17:59:42.800Z,102844.25
2019-03-21T18:02:11.083Z,102843.36
2019-03-21T18:04:39.372Z,102853.37
2019-03-21T18:07:07.674Z,102849.42
2019-03-21T18:12:36.111Z,102846.94
2019-03-21T18:18:11.894Z,102847.96
2019-03-21T18:20:40.168Z,102843.59
2019-03-21T18:23:08.436Z,102849.56
2019-03-21T18:25:36.728Z,102846.55
2019-03-21T18:28:04.994Z,102843.08
2019-03-21T18:30:35.591Z,102847.96
2019-03-21T18:33:03.863Z,102846.55
2019-03-21T18:35:32.170Z,102851.41
2019-03-21T18:38:00.473Z,102848.06
2019-03-21T18:40:28.742Z,102852.41
2019-03-21T18:42:57.055Z,102868.08
2019-03-21T18:45:25.351Z,102859.33
2019-03-21T18:54:12.341Z,102859.84
2019-03-21T18:56:40.616Z,102868.61
2019-03-21T18:59:08.904Z,102858.94
2019-03-21T19:01:37.182Z,102863.70
2019-03-21T19:04:05.540Z,102858.44
2019-03-21T19:06:33.817Z,102863.63
2019-03-21T19:09:02.100Z,102861.52
2019-03-21T19:11:30.392Z,102865.47
2019-03-21T19:13:58.663Z,102863.92
2019-03-21T19:19:35.018Z,102875.59
2019-03-21T19:22:03.286Z,102870.41
2019-03-21T19:24:31.578Z,102870.87
2019-03-21T19:26:59.854Z,102869.00
2019-03-21T19:29:28.142Z,102868.95
2019-03-21T19:31:56.449Z,102867.25
2019-03-21T19:34:24.722Z,102867.33
2019-03-21T19:36:52.993Z,102877.34
2019-03-21T19:39:21.302Z,102883.09
2019-03-21T19:41:49.804Z,102882.22
2019-03-21T19:44:18.074Z,102883.45
2019-03-21T19:46:46.405Z,102884.77
2019-03-21T19:49:46.137Z,102888.31
2019-03-21T19:52:14.420Z,102884.31
2019-03-21T19:54:42.730Z,102889.02
2019-03-21T19:57:11.151Z,102890.41
2019-03-21T19:59:40.732Z,102882.12
2019-03-21T20:02:09.453Z,102889.44
2019-03-21T20:04:37.735Z,102893.36
2019-03-21T20:07:06.007Z,102895.69
2019-03-21T20:09:34.281Z,102897.50
2019-03-21T20:12:02.568Z,102891.05
2019-03-21T20:14:30.844Z,102905.79
2019-03-21T20:16:59.126Z,102909.38
2019-03-21T20:19:27.425Z,102909.52
2019-03-21T20:21:55.718Z,102912.44
2019-03-21T20:24:24.007Z,102910.57
2019-03-21T20:26:52.282Z,102911.48
2019-03-21T20:29:20.594Z,102910.97
2019-03-21T20:31:48.867Z,102913.95
2019-03-21T20:34:17.133Z,102922.61
2019-03-21T20:36:45.457Z,102926.05
2019-03-21T20:39:13.742Z,102924.80
2019-03-21T20:41:42.009Z,102923.07
2019-03-21T20:44:29.650Z,102913.06
2019-03-21T20:46:57.927Z,102913.06
2019-03-21T20:49:26.220Z,102923.94
2019-03-21T20:51:54.492Z,102924.14
2019-03-21T20:54:22.776Z,102921.86
2019-03-21T20:56:51.131Z,102926.13
2019-03-21T20:59:19.432Z,102921.08
2019-03-21T21:01:47.703Z,102929.29
2019-03-21T21:04:15.973Z,102932.86
2019-03-21T21:06:44.258Z,102939.01
2019-03-21T21:09:12.541Z,102936.96
2019-03-21T21:11:40.805Z,102934.25
2019-03-21T21:14:09.083Z,102939.38
2019-03-21T21:16:37.368Z,102936.00
2019-03-21T21:19:05.631Z,102936.03
2019-03-21T21:21:33.907Z,102931.70
2019-03-21T21:24:02.189Z,102930.83
2019-03-21T21:26:30.484Z,102933.23
2019-03-21T21:28:58.761Z,102929.33
2019-03-21T21:31:27.032Z,102935.78
2019-03-21T21:33:55.378Z,102936.55
2019-03-21T21:36:23.659Z,102927.13
2019-03-21T21:38:51.941Z,102930.17
2019-03-21T21:41:20.267Z,102919.91
2019-03-21T21:43:48.515Z,102914.09
2019-03-21T21:46:16.781Z,102910.28
2019-03-21T21:48:45.045Z,102904.63
2019-03-21T21:51:13.313Z,102903.70
2019-03-21T21:53:41.886Z,102903.39
2019-03-21T21:56:17.498Z,102911.75
2019-03-21T21:58:40.170Z,102907.84
2019-03-21T22:01:08.449Z,102903.41
2019-03-21T22:03:36.719Z,102898.59
2019-03-21T22:06:05.009Z,102895.13
2019-03-21T22:08:33.286Z,102902.11
2019-03-21T22:11:01.569Z,102897.64
2019-03-21T22:13:29.831Z,102890.25
2019-03-21T22:15:58.110Z,102891.09
2019-03-21T22:18:26.398Z,102896.88
2019-03-21T22:20:54.659Z,102899.80
2019-03-21T22:23:22.942Z,102893.26
2019-03-21T22:25:51.244Z,102892.55
2019-03-21T22:28:19.517Z,102896.50
2019-03-21T22:30:47.785Z,102904.29
2019-03-21T22:33:16.064Z,102905.69
2019-03-21T22:35:44.349Z,102906.99
2019-03-21T22:38:12.627Z,102903.91
2019-03-21T22:40:40.902Z,102903.91
2019-03-21T22:43:09.174Z,102910.34
2019-03-21T22:45:37.440Z,102904.77
2019-03-21T22:48:05.728Z,102917.48
2019-03-21T22:50:46.668Z,102918.23
2019-03-21T22:53:14.963Z,102918.23
2019-03-21T22:55:43.268Z,102915.58
2019-03-21T22:58:11.558Z,102912.72
2019-03-21T23:00:58.931Z,102912.09
2019-03-21T23:03:27.215Z,102909.42
2019-03-21T23:05:55.518Z,102911.58
2019-03-21T23:08:23.795Z,102911.48
2019-03-21T23:10:52.083Z,102910.92
2019-03-21T23:13:20.355Z,102913.20
2019-03-21T23:15:48.648Z,102911.13
2019-03-21T23:18:16.932Z,102919.92
2019-03-21T23:20:45.219Z,102905.49
2019-03-21T23:23:13.499Z,102903.38
2019-03-21T23:25:41.801Z,102911.09
2019-03-21T23:28:10.039Z,102903.83
2019-03-21T23:30:38.313Z,102903.32
2019-03-21T23:33:06.588Z,102893.25
2019-03-21T23:35:34.885Z,102888.07
2019-03-21T23:38:03.162Z,102874.67
2019-03-21T23:40:31.423Z,102877.21
2019-03-21T23:42:59.724Z,102874.18
2019-03-21T23:45:28.009Z,102873.67
2019-03-21T23:47:56.281Z,102858.95
2019-03-21T23:50:24.589Z,102864.63
2019-03-21T23:52:52.861Z,102864.20
2019-03-21T23:55:21.146Z,102868.16
2019-03-21T23:57:49.433Z,102867.80
